Aérodrome :
LOGIN :

S'inscrire | Disclaimer

   EN    FR    IT 

 










Légende :    VFR   VFR Marginal   IFR   IFR Intensif   IFR Très Intensif
Visi : 
Plafond : 
>= 8 km
>= 3000ft
5 à 8 km
1000 à 3000 ft
1500m à 5 km
500 à 1000 ft
800 à 1500m
200 à 500 ft
< 800m
< 200 ft
Symboles :   Orages  Brouillard  Fortes neiges  Fortes précipitations  Vent > 20 kt
SIGMETs :   Divers  Orages  Givrage  Turbulence  Onde Orograph.  Cendres Volcan.







- Altitude de l'aérodrome : 22 ft
- Code IATA : TUN


DTTA - Tunis Carthage

DERNIER METAR :
  • 220130Z 00000KT 9999 FEW026 22/16 Q1015 NOSIG

METARs EXPIRÉS :
  • 220100Z 33002KT 9999 FEW026 22/16 Q1015
  • 220030Z VRB02KT 9999 FEW026 22/16 Q1015
  • 220000Z 00000KT 9999 FEW026 22/16 Q1015
  • 212330Z 02003KT 9999 FEW026 22/15 Q1015
  • 212300Z 00000KT 9999 FEW026 23/14 Q1015

TAF TAF DTTA
Valide du 22 à 00h jusqu'au 23 à 00h UTC


212340Z 2200/2224 02003KT 9999 FEW026
BECMG 2200/2202 12006KT
BECMG 2204/2206 22008KT
BECMG 2207/2209 33008KT 9999 SCT023
BECMG 2210/2212 01016KT
Pas de NOTAMs connus pour ce terrain.



MET'MAP, la Météo Aéronautique d'un coup d'oeil ! - Copyright ORBIFLY Décembre 2007 - Disclaimer

ORBIFLY MET'MAP TEAM :

Programmation & Développement : Alexandra Zaïnal
Conception & Développement : Baudouin d'Aumeries
Co-Programmation & Développement : Marc-Olivier Méhu
Soutien technique & logistique : Manuel Goepfert

Contact : metmap@orbifly.com




SOURCES & CREDITS :

   NOAA